sensor_id;sensor_type;location;lat;lon;timestamp;pressure;altitude;pressure_sealevel;temperature;humidity
71384;BME280;67558;52.166;5.004;2023-08-30T00:00:15;100915.06;;;18.57;54.80
71384;BME280;67558;52.166;5.004;2023-08-30T00:02:46;100891.63;;;18.44;54.88
71384;BME280;67558;52.166;5.004;2023-08-30T00:05:13;100821.59;;;18.02;54.89
71384;BME280;67558;52.166;5.004;2023-08-30T00:07:39;100908.69;;;18.61;55.14
71384;BME280;67558;52.166;5.004;2023-08-30T00:10:07;100913.16;;;18.66;54.95
71384;BME280;67558;52.166;5.004;2023-08-30T00:12:33;100906.63;;;18.67;55.55
71384;BME280;67558;52.166;5.004;2023-08-30T00:14:59;100870.28;;;18.51;55.33
71384;BME280;67558;52.166;5.004;2023-08-30T00:17:25;100899.13;;;18.73;55.42
71384;BME280;67558;52.166;5.004;2023-08-30T00:19:50;100892.28;;;18.75;54.96
71384;BME280;67558;52.166;5.004;2023-08-30T00:22:18;100868.69;;;18.67;55.26
71384;BME280;67558;52.166;5.004;2023-08-30T00:24:44;100886.56;;;18.86;55.40
71384;BME280;67558;52.166;5.004;2023-08-30T00:27:10;100856.25;;;18.66;55.02
71384;BME280;67558;52.166;5.004;2023-08-30T00:29:36;100874.94;;;18.85;55.42
71384;BME280;67558;52.166;5.004;2023-08-30T00:32:01;100865.53;;;18.82;55.00
71384;BME280;67558;52.166;5.004;2023-08-30T00:34:26;100842.53;;;18.71;55.11
71384;BME280;67558;52.166;5.004;2023-08-30T00:36:52;100855.19;;;18.85;55.16
71384;BME280;67558;52.166;5.004;2023-08-30T00:39:19;100879.06;;;19.00;54.90
71384;BME280;67558;52.166;5.004;2023-08-30T00:41:44;100861.69;;;18.92;54.97
71384;BME280;67558;52.166;5.004;2023-08-30T00:44:10;100847.84;;;18.85;55.03
71384;BME280;67558;52.166;5.004;2023-08-30T00:46:35;100860.72;;;18.97;54.99
71384;BME280;67558;52.166;5.004;2023-08-30T00:49:02;100839.41;;;18.87;54.91
71384;BME280;67558;52.166;5.004;2023-08-30T00:51:29;100819.44;;;18.74;55.20
71384;BME280;67558;52.166;5.004;2023-08-30T00:53:55;100868.38;;;19.12;55.18
71384;BME280;67558;52.166;5.004;2023-08-30T00:56:21;100846.06;;;18.98;55.03
71384;BME280;67558;52.166;5.004;2023-08-30T00:58:48;100871.53;;;19.14;54.79
71384;BME280;67558;52.166;5.004;2023-08-30T01:01:16;100846.06;;;19.07;54.76
71384;BME280;67558;52.166;5.004;2023-08-30T01:03:43;100834.56;;;19.01;54.66
71384;BME280;67558;52.166;5.004;2023-08-30T01:06:09;100815.00;;;18.87;54.61
71384;BME280;67558;52.166;5.004;2023-08-30T01:08:36;100861.34;;;19.20;54.54
71384;BME280;67558;52.166;5.004;2023-08-30T01:11:18;100824.38;;;18.98;54.67
71384;BME280;67558;52.166;5.004;2023-08-30T01:14:08;100853.88;;;19.17;54.78
71384;BME280;67558;52.166;5.004;2023-08-30T01:16:35;100793.47;;;18.81;54.55
71384;BME280;67558;52.166;5.004;2023-08-30T01:19:26;100848.75;;;19.15;54.61
71384;BME280;67558;52.166;5.004;2023-08-30T01:22:17;100833.13;;;19.03;54.67
71384;BME280;67558;52.166;5.004;2023-08-30T01:27:41;100831.72;;;18.97;54.50
71384;BME280;67558;52.166;5.004;2023-08-30T01:30:08;100834.75;;;19.05;54.47
71384;BME280;67558;52.166;5.004;2023-08-30T01:32:37;100827.56;;;19.00;54.33
71384;BME280;67558;52.166;5.004;2023-08-30T01:35:05;100849.84;;;19.14;54.46
71384;BME280;67558;52.166;5.004;2023-08-30T01:37:32;100807.81;;;18.91;54.35
71384;BME280;67558;52.166;5.004;2023-08-30T01:39:58;100838.41;;;19.09;54.21
71384;BME280;67558;52.166;5.004;2023-08-30T01:42:26;100843.50;;;19.19;53.96
71384;BME280;67558;52.166;5.004;2023-08-30T01:44:52;100803.31;;;18.95;53.93
71384;BME280;67558;52.166;5.004;2023-08-30T01:47:20;100803.66;;;18.93;54.04
71384;BME280;67558;52.166;5.004;2023-08-30T01:49:46;100814.50;;;19.02;54.18
71384;BME280;67558;52.166;5.004;2023-08-30T01:52:13;100803.34;;;18.86;53.92
71384;BME280;67558;52.166;5.004;2023-08-30T01:54:40;100835.84;;;19.12;54.02
71384;BME280;67558;52.166;5.004;2023-08-30T01:57:06;100811.00;;;19.01;53.83
71384;BME280;67558;52.166;5.004;2023-08-30T01:59:31;100729.13;;;18.52;54.07
71384;BME280;67558;52.166;5.004;2023-08-30T02:01:58;100773.03;;;18.75;53.92
71384;BME280;67558;52.166;5.004;2023-08-30T02:04:23;100813.84;;;19.05;53.95
71384;BME280;67558;52.166;5.004;2023-08-30T02:07:06;100820.88;;;19.06;54.03
71384;BME280;67558;52.166;5.004;2023-08-30T02:12:00;100817.34;;;19.06;53.80
71384;BME280;67558;52.166;5.004;2023-08-30T02:14:31;100733.22;;;18.50;53.88
71384;BME280;67558;52.166;5.004;2023-08-30T02:16:58;100789.47;;;18.88;53.96
71384;BME280;67558;52.166;5.004;2023-08-30T02:19:23;100803.81;;;18.97;53.93
71384;BME280;67558;52.166;5.004;2023-08-30T02:21:49;100770.19;;;18.72;53.73
71384;BME280;67558;52.166;5.004;2023-08-30T02:24:15;100814.81;;;19.00;53.83
71384;BME280;67558;52.166;5.004;2023-08-30T02:26:40;100795.69;;;18.79;53.88
71384;BME280;67558;52.166;5.004;2023-08-30T02:29:06;100820.06;;;18.97;53.81
71384;BME280;67558;52.166;5.004;2023-08-30T02:31:32;100779.78;;;18.69;54.04
71384;BME280;67558;52.166;5.004;2023-08-30T02:33:57;100791.69;;;18.77;53.72
71384;BME280;67558;52.166;5.004;2023-08-30T02:36:22;100723.38;;;18.28;53.99
71384;BME280;67558;52.166;5.004;2023-08-30T02:38:48;100815.00;;;18.87;53.59
71384;BME280;67558;52.166;5.004;2023-08-30T02:41:14;100779.44;;;18.62;53.86
71384;BME280;67558;52.166;5.004;2023-08-30T02:43:39;100772.59;;;18.56;53.77
71384;BME280;67558;52.166;5.004;2023-08-30T02:46:04;100808.25;;;18.75;54.05
71384;BME280;67558;52.166;5.004;2023-08-30T02:48:33;100776.25;;;18.60;53.90
71384;BME280;67558;52.166;5.004;2023-08-30T02:50:59;100800.47;;;18.74;54.06
71384;BME280;67558;52.166;5.004;2023-08-30T02:53:24;100735.97;;;18.32;53.86
71384;BME280;67558;52.166;5.004;2023-08-30T02:55:50;100780.41;;;18.66;53.92
71384;BME280;67558;52.166;5.004;2023-08-30T02:58:16;100775.75;;;18.67;53.92
71384;BME280;67558;52.166;5.004;2023-08-30T03:00:41;100760.78;;;18.52;54.07
71384;BME280;67558;52.166;5.004;2023-08-30T03:03:07;100714.63;;;18.31;54.10
71384;BME280;67558;52.166;5.004;2023-08-30T03:05:33;100764.13;;;18.66;54.11
71384;BME280;67558;52.166;5.004;2023-08-30T03:07:59;100719.09;;;18.35;54.10
71384;BME280;67558;52.166;5.004;2023-08-30T03:10:24;100705.38;;;18.23;54.17
71384;BME280;67558;52.166;5.004;2023-08-30T03:12:49;100753.81;;;18.51;54.02
71384;BME280;67558;52.166;5.004;2023-08-30T03:15:15;100742.81;;;18.38;54.20
71384;BME280;67558;52.166;5.004;2023-08-30T03:17:41;100719.72;;;18.24;53.87
71384;BME280;67558;52.166;5.004;2023-08-30T03:20:06;100718.94;;;18.23;54.43
71384;BME280;67558;52.166;5.004;2023-08-30T03:22:32;100727.69;;;18.29;54.31
71384;BME280;67558;52.166;5.004;2023-08-30T03:24:57;100728.00;;;18.18;54.40
71384;BME280;67558;52.166;5.004;2023-08-30T03:27:24;100660.91;;;17.72;54.39
71384;BME280;67558;52.166;5.004;2023-08-30T03:29:49;100729.59;;;18.19;54.27
71384;BME280;67558;52.166;5.004;2023-08-30T03:32:16;100707.44;;;18.09;54.28
71384;BME280;67558;52.166;5.004;2023-08-30T03:34:44;100726.88;;;18.28;54.12
71384;BME280;67558;52.166;5.004;2023-08-30T03:37:12;100673.38;;;17.90;54.17
71384;BME280;67558;52.166;5.004;2023-08-30T03:39:38;100621.94;;;17.64;54.20
71384;BME280;67558;52.166;5.004;2023-08-30T03:42:04;100664.16;;;17.91;53.91
71384;BME280;67558;52.166;5.004;2023-08-30T03:44:29;100678.16;;;18.02;53.81
71384;BME280;67558;52.166;5.004;2023-08-30T03:46:55;100710.78;;;18.32;53.93
71384;BME280;67558;52.166;5.004;2023-08-30T03:49:22;100697.91;;;18.20;53.97
71384;BME280;67558;52.166;5.004;2023-08-30T03:51:48;100700.94;;;18.27;54.26
71384;BME280;67558;52.166;5.004;2023-08-30T03:54:13;100695.81;;;18.26;53.92
71384;BME280;67558;52.166;5.004;2023-08-30T03:56:45;100687.88;;;18.20;53.94
71384;BME280;67558;52.166;5.004;2023-08-30T03:59:12;100680.25;;;18.14;53.83
71384;BME280;67558;52.166;5.004;2023-08-30T04:01:37;100701.41;;;18.29;53.99
71384;BME280;67558;52.166;5.004;2023-08-30T04:04:02;100706.16;;;18.32;53.91
71384;BME280;67558;52.166;5.004;2023-08-30T04:06:28;100652.84;;;18.07;53.55
71384;BME280;67558;52.166;5.004;2023-08-30T04:08:53;100647.13;;;17.99;53.45
71384;BME280;67558;52.166;5.004;2023-08-30T04:11:19;100668.94;;;18.12;53.37
71384;BME280;67558;52.166;5.004;2023-08-30T04:13:44;100677.03;;;18.20;53.39
71384;BME280;67558;52.166;5.004;2023-08-30T04:16:10;100680.06;;;18.19;53.34
71384;BME280;67558;52.166;5.004;2023-08-30T04:18:36;100645.06;;;17.96;53.43
71384;BME280;67558;52.166;5.004;2023-08-30T04:21:01;100681.69;;;18.20;53.11
71384;BME280;67558;52.166;5.004;2023-08-30T04:23:28;100660.47;;;18.05;53.28
71384;BME280;67558;52.166;5.004;2023-08-30T04:25:53;100703.00;;;18.30;53.07
71384;BME280;67558;52.166;5.004;2023-08-30T04:28:19;100682.47;;;18.20;53.40
71384;BME280;67558;52.166;5.004;2023-08-30T04:30:44;100651.75;;;18.08;53.30
71384;BME280;67558;52.166;5.004;2023-08-30T04:33:10;100640.28;;;18.02;53.23
71384;BME280;67558;52.166;5.004;2023-08-30T04:35:35;100679.91;;;18.24;53.05
71384;BME280;67558;52.166;5.004;2023-08-30T04:38:01;100672.44;;;18.21;52.96
71384;BME280;67558;52.166;5.004;2023-08-30T04:40:27;100510.91;;;17.17;52.86
71384;BME280;67558;52.166;5.004;2023-08-30T04:42:53;100673.06;;;18.18;53.20
71384;BME280;67558;52.166;5.004;2023-08-30T04:45:18;100655.25;;;17.99;52.98
71384;BME280;67558;52.166;5.004;2023-08-30T04:47:45;100650.00;;;17.94;53.02
71384;BME280;67558;52.166;5.004;2023-08-30T04:50:11;100624.97;;;17.80;52.97
71384;BME280;67558;52.166;5.004;2023-08-30T04:52:37;100639.78;;;17.91;53.48
71384;BME280;67558;52.166;5.004;2023-08-30T04:55:02;100619.28;;;17.90;53.34
71384;BME280;67558;52.166;5.004;2023-08-30T04:57:29;100569.91;;;17.58;53.33
71384;BME280;67558;52.166;5.004;2023-08-30T04:59:55;100636.94;;;17.96;53.06
71384;BME280;67558;52.166;5.004;2023-08-30T05:02:20;100622.13;;;17.85;53.17
71384;BME280;67558;52.166;5.004;2023-08-30T05:04:46;100658.72;;;18.00;53.29
71384;BME280;67558;52.166;5.004;2023-08-30T05:07:11;100596.31;;;17.61;53.38
71384;BME280;67558;52.166;5.004;2023-08-30T05:09:37;100601.28;;;17.68;53.52
71384;BME280;67558;52.166;5.004;2023-08-30T05:12:02;100636.78;;;17.84;53.86
71384;BME280;67558;52.166;5.004;2023-08-30T05:14:28;100652.53;;;17.91;53.50
71384;BME280;67558;52.166;5.004;2023-08-30T05:16:53;100623.41;;;17.79;53.42
71384;BME280;67558;52.166;5.004;2023-08-30T05:19:19;100619.06;;;17.78;53.60
71384;BME280;67558;52.166;5.004;2023-08-30T05:21:44;100657.78;;;18.05;53.56
71384;BME280;67558;52.166;5.004;2023-08-30T05:24:10;100598.22;;;17.70;53.92
71384;BME280;67558;52.166;5.004;2023-08-30T05:26:37;100661.13;;;18.01;54.19
71384;BME280;67558;52.166;5.004;2023-08-30T05:29:03;100658.72;;;18.00;54.28
71384;BME280;67558;52.166;5.004;2023-08-30T05:31:28;100570.56;;;17.47;53.98
71384;BME280;67558;52.166;5.004;2023-08-30T05:33:53;100633.41;;;17.87;53.38
71384;BME280;67558;52.166;5.004;2023-08-30T05:36:19;100639.00;;;17.91;53.48
71384;BME280;67558;52.166;5.004;2023-08-30T05:38:44;100644.59;;;18.03;53.45
71384;BME280;67558;52.166;5.004;2023-08-30T05:41:10;100666.06;;;18.17;53.45
71384;BME280;67558;52.166;5.004;2023-08-30T05:43:35;100659.69;;;18.13;53.59
71384;BME280;67558;52.166;5.004;2023-08-30T05:46:01;100644.09;;;18.10;53.71
71384;BME280;67558;52.166;5.004;2023-08-30T05:48:32;100669.25;;;18.19;53.77
71384;BME280;67558;52.166;5.004;2023-08-30T05:50:57;100661.28;;;18.14;53.93
71384;BME280;67558;52.166;5.004;2023-08-30T05:53:23;100673.38;;;18.25;54.19
71384;BME280;67558;52.166;5.004;2023-08-30T05:55:49;100664.00;;;18.23;54.08
71384;BME280;67558;52.166;5.004;2023-08-30T05:58:14;100673.38;;;18.25;54.32
71384;BME280;67558;52.166;5.004;2023-08-30T06:00:41;100627.22;;;17.95;54.81
71384;BME280;67558;52.166;5.004;2023-08-30T06:03:07;100650.47;;;18.14;55.27
71384;BME280;67558;52.166;5.004;2023-08-30T06:05:33;100657.78;;;18.22;56.14
71384;BME280;67558;52.166;5.004;2023-08-30T06:07:59;100630.25;;;18.03;56.45
71384;BME280;67558;52.166;5.004;2023-08-30T06:10:24;100621.34;;;17.93;56.92
71384;BME280;67558;52.166;5.004;2023-08-30T06:12:50;100602.38;;;17.76;57.05
71384;BME280;67558;52.166;5.004;2023-08-30T06:15:16;100621.50;;;17.88;57.72
71384;BME280;67558;52.166;5.004;2023-08-30T06:17:42;100600.31;;;17.73;57.91
71384;BME280;67558;52.166;5.004;2023-08-30T06:20:08;100649.34;;;18.06;58.15
71384;BME280;67558;52.166;5.004;2023-08-30T06:22:34;100632.50;;;17.92;58.81
71384;BME280;67558;52.166;5.004;2023-08-30T06:24:59;100602.06;;;17.77;58.52
71384;BME280;67558;52.166;5.004;2023-08-30T06:27:24;100616.09;;;17.88;59.09
71384;BME280;67558;52.166;5.004;2023-08-30T06:29:51;100551.63;;;17.47;59.47
71384;BME280;67558;52.166;5.004;2023-08-30T06:32:17;100567.22;;;17.58;59.11
71384;BME280;67558;52.166;5.004;2023-08-30T06:34:43;100623.06;;;17.89;59.43
71384;BME280;67558;52.166;5.004;2023-08-30T06:37:09;100625.66;;;17.94;59.88
71384;BME280;67558;52.166;5.004;2023-08-30T06:39:35;100577.22;;;17.67;59.94
71384;BME280;67558;52.166;5.004;2023-08-30T06:42:02;100531.41;;;17.35;60.14
71384;BME280;67558;52.166;5.004;2023-08-30T06:44:28;100589.63;;;17.76;60.34
71384;BME280;67558;52.166;5.004;2023-08-30T06:46:57;100522.19;;;17.28;60.28
71384;BME280;67558;52.166;5.004;2023-08-30T06:49:23;100543.81;;;17.45;60.35
71384;BME280;67558;52.166;5.004;2023-08-30T06:51:50;100619.41;;;17.94;60.43
71384;BME280;67558;52.166;5.004;2023-08-30T06:54:17;100613.53;;;18.00;60.34
71384;BME280;67558;52.166;5.004;2023-08-30T06:56:59;100611.28;;;17.94;61.24
71384;BME280;67558;52.166;5.004;2023-08-30T06:59:29;100571.66;;;17.63;61.49
71384;BME280;67558;52.166;5.004;2023-08-30T07:01:55;100590.78;;;17.84;61.19
71384;BME280;67558;52.166;5.004;2023-08-30T07:04:21;100568.00;;;17.68;61.45
71384;BME280;67558;52.166;5.004;2023-08-30T07:06:47;100593.00;;;17.91;61.21
71384;BME280;67558;52.166;5.004;2023-08-30T07:09:13;100600.94;;;17.96;61.48
71384;BME280;67558;52.166;5.004;2023-08-30T07:11:39;100567.53;;;17.83;61.67
71384;BME280;67558;52.166;5.004;2023-08-30T07:14:04;100582.97;;;17.91;61.68
71384;BME280;67558;52.166;5.004;2023-08-30T07:16:31;100559.41;;;17.83;61.56
71384;BME280;67558;52.166;5.004;2023-08-30T07:18:58;100547.63;;;17.79;61.98
71384;BME280;67558;52.166;5.004;2023-08-30T07:21:24;100564.03;;;17.91;61.90
71384;BME280;67558;52.166;5.004;2023-08-30T07:23:49;100568.16;;;17.97;62.11
71384;BME280;67558;52.166;5.004;2023-08-30T07:26:14;100497.53;;;17.55;62.05
71384;BME280;67558;52.166;5.004;2023-08-30T07:28:41;100569.56;;;18.12;61.97
71384;BME280;67558;52.166;5.004;2023-08-30T07:31:07;100550.47;;;18.00;62.41
71384;BME280;67558;52.166;5.004;2023-08-30T07:33:32;100556.69;;;18.09;62.15
71384;BME280;67558;52.166;5.004;2023-08-30T07:35:59;100556.81;;;18.13;62.11
71384;BME280;67558;52.166;5.004;2023-08-30T07:38:24;100508.34;;;17.90;62.27
71384;BME280;67558;52.166;5.004;2023-08-30T07:40:50;100509.09;;;17.99;62.68
71384;BME280;67558;52.166;5.004;2023-08-30T07:43:16;100508.44;;;18.11;62.66
71384;BME280;67558;52.166;5.004;2023-08-30T07:45:41;100473.31;;;17.85;62.64
71384;BME280;67558;52.166;5.004;2023-08-30T07:48:06;100485.09;;;17.89;62.62
71384;BME280;67558;52.166;5.004;2023-08-30T07:50:32;100498.13;;;17.96;62.47
71384;BME280;67558;52.166;5.004;2023-08-30T07:52:57;100486.50;;;17.95;62.61
71384;BME280;67558;52.166;5.004;2023-08-30T07:55:22;100537.22;;;18.25;62.81
71384;BME280;67558;52.166;5.004;2023-08-30T07:57:48;100473.66;;;17.84;62.94
71384;BME280;67558;52.166;5.004;2023-08-30T08:00:13;100535.78;;;18.27;62.98
71384;BME280;67558;52.166;5.004;2023-08-30T08:02:39;100522.28;;;18.18;62.86
71384;BME280;67558;52.166;5.004;2023-08-30T08:05:06;100497.19;;;18.00;62.97
71384;BME280;67558;52.166;5.004;2023-08-30T08:07:32;100519.25;;;18.20;63.05
71384;BME280;67558;52.166;5.004;2023-08-30T08:09:57;100537.03;;;18.30;62.93
71384;BME280;67558;52.166;5.004;2023-08-30T08:12:23;100481.75;;;17.92;62.88
71384;BME280;67558;52.166;5.004;2023-08-30T08:14:49;100512.22;;;18.19;62.90
71384;BME280;67558;52.166;5.004;2023-08-30T08:17:15;100489.97;;;18.05;63.21
71384;BME280;67558;52.166;5.004;2023-08-30T08:19:40;100531.16;;;18.28;63.35
71384;BME280;67558;52.166;5.004;2023-08-30T08:22:08;100499.50;;;18.11;63.36
71384;BME280;67558;52.166;5.004;2023-08-30T08:24:33;100535.91;;;18.39;63.16
71384;BME280;67558;52.166;5.004;2023-08-30T08:26:59;100523.81;;;18.28;63.52
71384;BME280;67558;52.166;5.004;2023-08-30T08:29:27;100453.59;;;17.85;63.31
71384;BME280;67558;52.166;5.004;2023-08-30T08:31:53;100524.28;;;18.30;63.51
71384;BME280;67558;52.166;5.004;2023-08-30T08:34:19;100529.22;;;18.37;63.70
71384;BME280;67558;52.166;5.004;2023-08-30T08:36:44;100516.16;;;18.30;63.25
71384;BME280;67558;52.166;5.004;2023-08-30T08:39:10;100547.03;;;18.47;63.77
71384;BME280;67558;52.166;5.004;2023-08-30T08:41:42;100538.88;;;18.47;63.69
71384;BME280;67558;52.166;5.004;2023-08-30T08:44:10;100533.47;;;18.47;63.56
71384;BME280;67558;52.166;5.004;2023-08-30T08:46:36;100477.34;;;18.17;63.71
71384;BME280;67558;52.166;5.004;2023-08-30T08:49:09;100461.97;;;18.09;63.83
71384;BME280;67558;52.166;5.004;2023-08-30T08:51:36;100527.88;;;18.52;63.80
71384;BME280;67558;52.166;5.004;2023-08-30T08:54:04;100521.19;;;18.49;64.01
71384;BME280;67558;52.166;5.004;2023-08-30T08:56:31;100521.63;;;18.60;63.77
71384;BME280;67558;52.166;5.004;2023-08-30T08:58:57;100438.25;;;18.06;63.97
71384;BME280;67558;52.166;5.004;2023-08-30T09:01:24;100519.38;;;18.62;64.00
71384;BME280;67558;52.166;5.004;2023-08-30T09:03:50;100425.38;;;18.03;63.99
71384;BME280;67558;52.166;5.004;2023-08-30T09:06:15;100428.19;;;18.07;64.07
71384;BME280;67558;52.166;5.004;2023-08-30T09:08:41;100505.06;;;18.61;63.97
71384;BME280;67558;52.166;5.004;2023-08-30T09:11:08;100425.34;;;18.12;64.23
71384;BME280;67558;52.166;5.004;2023-08-30T09:13:33;100480.25;;;18.51;64.05
71384;BME280;67558;52.166;5.004;2023-08-30T09:15:59;100511.53;;;18.78;64.04
71384;BME280;67558;52.166;5.004;2023-08-30T09:18:24;100466.25;;;18.49;64.32
71384;BME280;67558;52.166;5.004;2023-08-30T09:20:53;100473.53;;;18.57;64.35
71384;BME280;67558;52.166;5.004;2023-08-30T09:23:22;100506.84;;;18.87;64.44
71384;BME280;67558;52.166;5.004;2023-08-30T09:25:54;100487.16;;;18.78;64.21
71384;BME280;67558;52.166;5.004;2023-08-30T09:28:20;100484.09;;;18.79;64.50
71384;BME280;67558;52.166;5.004;2023-08-30T09:30:49;100364.84;;;18.08;64.42
71384;BME280;67558;52.166;5.004;2023-08-30T09:33:15;100488.81;;;18.91;64.38
71384;BME280;67558;52.166;5.004;2023-08-30T09:35:44;100502.09;;;19.05;64.58
71384;BME280;67558;52.166;5.004;2023-08-30T09:38:16;100500.66;;;19.08;64.54
71384;BME280;67558;52.166;5.004;2023-08-30T09:40:43;100507.13;;;19.15;64.32
71384;BME280;67558;52.166;5.004;2023-08-30T09:43:09;100506.28;;;19.23;64.63
71384;BME280;67558;52.166;5.004;2023-08-30T09:45:34;100477.63;;;19.14;64.58
71384;BME280;67558;52.166;5.004;2023-08-30T09:48:01;100505.69;;;19.39;64.56
71384;BME280;67558;52.166;5.004;2023-08-30T09:50:34;100497.88;;;19.37;64.88
71384;BME280;67558;52.166;5.004;2023-08-30T09:53:05;100504.28;;;19.54;64.82
71384;BME280;67558;52.166;5.004;2023-08-30T09:55:32;100506.69;;;19.68;64.73
71384;BME280;67558;52.166;5.004;2023-08-30T09:58:00;100512.19;;;19.80;64.80
71384;BME280;67558;52.166;5.004;2023-08-30T10:00:27;100497.72;;;19.76;64.52
71384;BME280;67558;52.166;5.004;2023-08-30T10:02:53;100482.81;;;19.82;64.22
71384;BME280;67558;52.166;5.004;2023-08-30T10:05:19;100455.81;;;19.64;63.77
71384;BME280;67558;52.166;5.004;2023-08-30T10:07:45;100475.00;;;19.80;63.88
71384;BME280;67558;52.166;5.004;2023-08-30T10:10:12;100471.03;;;19.78;63.16
71384;BME280;67558;52.166;5.004;2023-08-30T10:12:39;100482.59;;;19.87;62.93
71384;BME280;67558;52.166;5.004;2023-08-30T10:15:06;100485.56;;;19.94;62.67
71384;BME280;67558;52.166;5.004;2023-08-30T10:17:32;100511.03;;;20.14;62.53
71384;BME280;67558;52.166;5.004;2023-08-30T10:20:04;100520.88;;;20.19;61.55
71384;BME280;67558;52.166;5.004;2023-08-30T10:22:31;100482.50;;;19.96;61.02
71384;BME280;67558;52.166;5.004;2023-08-30T10:25:01;100516.13;;;20.16;60.43
71384;BME280;67558;52.166;5.004;2023-08-30T10:27:30;100521.13;;;20.14;60.27
71384;BME280;67558;52.166;5.004;2023-08-30T10:29:58;100533.00;;;20.09;59.67
71384;BME280;67558;52.166;5.004;2023-08-30T10:32:24;100484.28;;;19.79;59.15
71384;BME280;67558;52.166;5.004;2023-08-30T10:34:51;100513.72;;;19.90;58.54
71384;BME280;67558;52.166;5.004;2023-08-30T10:37:22;100544.50;;;20.06;57.95
71384;BME280;67558;52.166;5.004;2023-08-30T10:39:49;100528.75;;;19.99;58.11
71384;BME280;67558;52.166;5.004;2023-08-30T10:42:16;100539.53;;;20.08;57.98
71384;BME280;67558;52.166;5.004;2023-08-30T10:44:48;100540.31;;;20.09;57.79
71384;BME280;67558;52.166;5.004;2023-08-30T10:47:26;100514.69;;;19.85;57.79
71384;BME280;67558;52.166;5.004;2023-08-30T10:49:59;100507.38;;;19.86;57.66
71384;BME280;67558;52.166;5.004;2023-08-30T10:52:27;100525.38;;;20.02;57.84
71384;BME280;67558;52.166;5.004;2023-08-30T10:55:04;100548.50;;;20.21;58.02
71384;BME280;67558;52.166;5.004;2023-08-30T10:57:31;100549.41;;;20.25;58.25
71384;BME280;67558;52.166;5.004;2023-08-30T11:02:45;100551.69;;;20.35;57.93
71384;BME280;67558;52.166;5.004;2023-08-30T11:05:16;100531.97;;;20.26;57.90
71384;BME280;67558;52.166;5.004;2023-08-30T11:07:45;100452.63;;;19.83;58.02
71384;BME280;67558;52.166;5.004;2023-08-30T11:10:12;100546.84;;;20.53;57.82
71384;BME280;67558;52.166;5.004;2023-08-30T11:12:42;100519.66;;;20.41;57.24
71384;BME280;67558;52.166;5.004;2023-08-30T11:15:10;100555.72;;;20.75;57.14
71384;BME280;67558;52.166;5.004;2023-08-30T11:17:35;100554.69;;;20.79;57.18
71384;BME280;67558;52.166;5.004;2023-08-30T11:20:11;100545.06;;;20.94;56.67
71384;BME280;67558;52.166;5.004;2023-08-30T11:22:43;100518.69;;;20.82;56.12
71384;BME280;67558;52.166;5.004;2023-08-30T11:25:10;100527.06;;;20.90;56.45
71384;BME280;67558;52.166;5.004;2023-08-30T11:27:40;100535.78;;;20.95;55.87
71384;BME280;67558;52.166;5.004;2023-08-30T11:30:06;100556.25;;;21.05;54.82
71384;BME280;67558;52.166;5.004;2023-08-30T11:32:41;100540.31;;;20.91;54.33
71384;BME280;67558;52.166;5.004;2023-08-30T11:35:11;100560.34;;;20.99;54.62
71384;BME280;67558;52.166;5.004;2023-08-30T11:37:36;100538.72;;;20.78;54.48
71384;BME280;67558;52.166;5.004;2023-08-30T11:40:05;100568.28;;;20.92;54.15
71384;BME280;67558;52.166;5.004;2023-08-30T11:42:31;100553.31;;;20.73;53.76
71384;BME280;67558;52.166;5.004;2023-08-30T11:44:58;100549.38;;;20.71;53.25
71384;BME280;67558;52.166;5.004;2023-08-30T11:47:25;100570.34;;;20.82;53.33
71384;BME280;67558;52.166;5.004;2023-08-30T11:49:52;100549.59;;;20.78;53.52
71384;BME280;67558;52.166;5.004;2023-08-30T11:52:19;100556.94;;;20.90;53.47
71384;BME280;67558;52.166;5.004;2023-08-30T11:54:47;100448.94;;;20.25;53.21
71384;BME280;67558;52.166;5.004;2023-08-30T11:57:14;100510.53;;;20.70;52.87
71384;BME280;67558;52.166;5.004;2023-08-30T11:59:39;100474.38;;;20.45;52.29
71384;BME280;67558;52.166;5.004;2023-08-30T12:02:05;100523.22;;;20.78;51.67
71384;BME280;67558;52.166;5.004;2023-08-30T12:04:31;100530.34;;;20.83;51.19
71384;BME280;67558;52.166;5.004;2023-08-30T12:06:58;100564.66;;;21.00;50.91
71384;BME280;67558;52.166;5.004;2023-08-30T12:09:30;100492.19;;;20.55;50.94
71384;BME280;67558;52.166;5.004;2023-08-30T12:12:05;100563.63;;;21.04;50.56
71384;BME280;67558;52.166;5.004;2023-08-30T12:14:34;100553.66;;;20.96;50.52
71384;BME280;67558;52.166;5.004;2023-08-30T12:17:00;100574.72;;;21.12;50.30
71384;BME280;67558;52.166;5.004;2023-08-30T12:19:28;100547.19;;;21.01;49.95
71384;BME280;67558;52.166;5.004;2023-08-30T12:21:53;100566.22;;;21.13;49.99
71384;BME280;67558;52.166;5.004;2023-08-30T12:24:19;100574.38;;;21.13;49.47
71384;BME280;67558;52.166;5.004;2023-08-30T12:26:45;100557.28;;;21.13;49.06
71384;BME280;67558;52.166;5.004;2023-08-30T12:29:10;100572.31;;;21.22;48.54
71384;BME280;67558;52.166;5.004;2023-08-30T12:31:35;100551.47;;;21.14;48.77
71384;BME280;67558;52.166;5.004;2023-08-30T12:34:02;100579.22;;;21.32;48.68
71384;BME280;67558;52.166;5.004;2023-08-30T12:36:28;100549.88;;;21.25;48.74
71384;BME280;67558;52.166;5.004;2023-08-30T12:38:53;100564.91;;;21.47;48.73
71384;BME280;67558;52.166;5.004;2023-08-30T12:41:19;100559.13;;;21.37;48.28
71384;BME280;67558;52.166;5.004;2023-08-30T12:43:48;100587.66;;;21.55;48.39
71384;BME280;67558;52.166;5.004;2023-08-30T12:46:13;100558.44;;;21.40;48.28
71384;BME280;67558;52.166;5.004;2023-08-30T12:48:38;100488.75;;;20.95;48.68
71384;BME280;67558;52.166;5.004;2023-08-30T12:51:04;100591.75;;;21.61;48.63
71384;BME280;67558;52.166;5.004;2023-08-30T12:53:30;100550.66;;;21.38;48.21
71384;BME280;67558;52.166;5.004;2023-08-30T12:55:56;100603.06;;;21.63;48.40